sensor_id;sensor_type;location;lat;lon;timestamp;pressure;altitude;pressure_sealevel;temperature;humidity
46722;BME280;32455;43.430;23.136;2023-04-30T00:01:14;97897.19;;;7.16;100.00
46722;BME280;32455;43.430;23.136;2023-04-30T00:03:59;97908.25;;;7.33;100.00
46722;BME280;32455;43.430;23.136;2023-04-30T00:06:44;97908.63;;;7.43;100.00
46722;BME280;32455;43.430;23.136;2023-04-30T00:09:30;97892.84;;;7.22;100.00
46722;BME280;32455;43.430;23.136;2023-04-30T00:12:14;97901.91;;;7.08;100.00
46722;BME280;32455;43.430;23.136;2023-04-30T00:15:00;97898.41;;;7.00;100.00
46722;BME280;32455;43.430;23.136;2023-04-30T00:17:45;97902.31;;;7.05;100.00
46722;BME280;32455;43.430;23.136;2023-04-30T00:20:30;97903.16;;;7.12;100.00
46722;BME280;32455;43.430;23.136;2023-04-30T00:23:16;97891.00;;;7.09;100.00
46722;BME280;32455;43.430;23.136;2023-04-30T00:26:01;97905.38;;;7.21;100.00
46722;BME280;32455;43.430;23.136;2023-04-30T00:28:47;97890.00;;;7.03;100.00
46722;BME280;32455;43.430;23.136;2023-04-30T00:31:32;97894.72;;;6.82;100.00
46722;BME280;32455;43.430;23.136;2023-04-30T00:34:17;97890.00;;;6.77;100.00
46722;BME280;32455;43.430;23.136;2023-04-30T00:37:03;97886.94;;;6.73;100.00
46722;BME280;32455;43.430;23.136;2023-04-30T00:39:48;97892.03;;;6.75;100.00
46722;BME280;32455;43.430;23.136;2023-04-30T00:42:34;97904.78;;;6.80;100.00
46722;BME280;32455;43.430;23.136;2023-04-30T00:45:19;97895.34;;;6.70;100.00
46722;BME280;32455;43.430;23.136;2023-04-30T00:48:06;97895.97;;;6.72;100.00
46722;BME280;32455;43.430;23.136;2023-04-30T00:50:51;97904.97;;;6.71;100.00
46722;BME280;32455;43.430;23.136;2023-04-30T00:53:38;97887.13;;;6.52;100.00
46722;BME280;32455;43.430;23.136;2023-04-30T00:56:24;97891.00;;;6.49;100.00
46722;BME280;32455;43.430;23.136;2023-04-30T00:59:09;97892.81;;;6.29;100.00
46722;BME280;32455;43.430;23.136;2023-04-30T01:01:56;97903.94;;;6.39;100.00
46722;BME280;32455;43.430;23.136;2023-04-30T01:04:41;97893.66;;;6.30;100.00
46722;BME280;32455;43.430;23.136;2023-04-30T01:07:27;97895.66;;;6.21;100.00
46722;BME280;32455;43.430;23.136;2023-04-30T01:10:13;97885.63;;;6.23;100.00
46722;BME280;32455;43.430;23.136;2023-04-30T01:13:05;97891.41;;;6.46;100.00
46722;BME280;32455;43.430;23.136;2023-04-30T01:16:12;97896.34;;;6.56;100.00
46722;BME280;32455;43.430;23.136;2023-04-30T01:22:03;97886.44;;;6.23;100.00
46722;BME280;32455;43.430;23.136;2023-04-30T01:28:14;97893.19;;;6.13;100.00
46722;BME280;32455;43.430;23.136;2023-04-30T01:31:13;97878.19;;;6.05;100.00
46722;BME280;32455;43.430;23.136;2023-04-30T01:33:59;97864.81;;;5.98;100.00
46722;BME280;32455;43.430;23.136;2023-04-30T01:40:08;97877.81;;;6.08;100.00
46722;BME280;32455;43.430;23.136;2023-04-30T01:46:28;97882.06;;;6.02;100.00
46722;BME280;32455;43.430;23.136;2023-04-30T01:49:21;97883.78;;;6.23;100.00
46722;BME280;32455;43.430;23.136;2023-04-30T01:52:21;97883.81;;;6.30;100.00
46722;BME280;32455;43.430;23.136;2023-04-30T01:58:23;97891.59;;;6.32;100.00
46722;BME280;32455;43.430;23.136;2023-04-30T02:01:25;97881.31;;;6.28;100.00
46722;BME280;32455;43.430;23.136;2023-04-30T02:04:11;97883.16;;;6.28;100.00
46722;BME280;32455;43.430;23.136;2023-04-30T02:06:56;97882.72;;;6.05;100.00
46722;BME280;32455;43.430;23.136;2023-04-30T02:09:42;97883.31;;;6.00;100.00
46722;BME280;32455;43.430;23.136;2023-04-30T02:12:28;97879.78;;;5.99;100.00
46722;BME280;32455;43.430;23.136;2023-04-30T02:15:14;97881.84;;;5.97;100.00
46722;BME280;32455;43.430;23.136;2023-04-30T02:17:58;97863.50;;;5.81;100.00
46722;BME280;32455;43.430;23.136;2023-04-30T02:20:44;97887.06;;;5.77;100.00
46722;BME280;32455;43.430;23.136;2023-04-30T02:23:29;97883.16;;;5.67;100.00
46722;BME280;32455;43.430;23.136;2023-04-30T02:26:14;97875.97;;;5.67;100.00
46722;BME280;32455;43.430;23.136;2023-04-30T02:29:00;97877.00;;;5.73;100.00
46722;BME280;32455;43.430;23.136;2023-04-30T02:31:45;97878.19;;;5.64;100.00
46722;BME280;32455;43.430;23.136;2023-04-30T02:34:30;97872.91;;;5.70;100.00
46722;BME280;32455;43.430;23.136;2023-04-30T02:37:15;97876.56;;;5.69;100.00
46722;BME280;32455;43.430;23.136;2023-04-30T02:40:01;97875.69;;;5.56;100.00
46722;BME280;32455;43.430;23.136;2023-04-30T02:42:47;97879.81;;;5.58;100.00
46722;BME280;32455;43.430;23.136;2023-04-30T02:45:32;97878.19;;;5.64;100.00
46722;BME280;32455;43.430;23.136;2023-04-30T02:48:16;97877.59;;;5.68;100.00
46722;BME280;32455;43.430;23.136;2023-04-30T02:51:01;97899.41;;;5.85;100.00
46722;BME280;32455;43.430;23.136;2023-04-30T02:53:48;97884.44;;;5.91;100.00
46722;BME280;32455;43.430;23.136;2023-04-30T02:56:34;97870.06;;;5.78;100.00
46722;BME280;32455;43.430;23.136;2023-04-30T02:59:19;97884.22;;;5.79;100.00
46722;BME280;32455;43.430;23.136;2023-04-30T03:02:04;97888.75;;;5.85;100.00
46722;BME280;32455;43.430;23.136;2023-04-30T03:04:50;97889.47;;;6.07;100.00
46722;BME280;32455;43.430;23.136;2023-04-30T03:07:35;97883.78;;;6.17;100.00
46722;BME280;32455;43.430;23.136;2023-04-30T03:10:22;97894.88;;;6.40;100.00
46722;BME280;32455;43.430;23.136;2023-04-30T03:13:08;97886.91;;;6.53;100.00
46722;BME280;32455;43.430;23.136;2023-04-30T03:15:59;97896.78;;;6.60;100.00
46722;BME280;32455;43.430;23.136;2023-04-30T03:18:45;97887.31;;;6.57;100.00
46722;BME280;32455;43.430;23.136;2023-04-30T03:21:30;97893.28;;;6.72;100.00
46722;BME280;32455;43.430;23.136;2023-04-30T03:24:16;97882.00;;;6.77;100.00
46722;BME280;32455;43.430;23.136;2023-04-30T03:27:02;97887.13;;;6.92;100.00
46722;BME280;32455;43.430;23.136;2023-04-30T03:29:47;97889.16;;;7.10;100.00
46722;BME280;32455;43.430;23.136;2023-04-30T03:32:33;97886.28;;;7.18;100.00
46722;BME280;32455;43.430;23.136;2023-04-30T03:35:18;97884.59;;;7.30;100.00
46722;BME280;32455;43.430;23.136;2023-04-30T03:38:03;97885.00;;;7.40;100.00
46722;BME280;32455;43.430;23.136;2023-04-30T03:40:48;97880.00;;;7.57;100.00
46722;BME280;32455;43.430;23.136;2023-04-30T03:43:34;97883.09;;;7.67;100.00
46722;BME280;32455;43.430;23.136;2023-04-30T03:46:19;97886.34;;;7.76;100.00
46722;BME280;32455;43.430;23.136;2023-04-30T03:49:04;97873.75;;;7.83;100.00
46722;BME280;32455;43.430;23.136;2023-04-30T03:51:50;97891.16;;;7.99;100.00
46722;BME280;32455;43.430;23.136;2023-04-30T03:54:35;97888.25;;;8.07;100.00
46722;BME280;32455;43.430;23.136;2023-04-30T03:57:21;97907.31;;;8.24;100.00
46722;BME280;32455;43.430;23.136;2023-04-30T04:00:07;97894.56;;;8.19;100.00
46722;BME280;32455;43.430;23.136;2023-04-30T04:02:58;97899.88;;;8.26;100.00
46722;BME280;32455;43.430;23.136;2023-04-30T04:05:43;97905.16;;;8.46;100.00
46722;BME280;32455;43.430;23.136;2023-04-30T04:08:28;97896.81;;;8.61;100.00
46722;BME280;32455;43.430;23.136;2023-04-30T04:11:13;97906.25;;;8.70;100.00
46722;BME280;32455;43.430;23.136;2023-04-30T04:13:59;97907.38;;;8.81;100.00
46722;BME280;32455;43.430;23.136;2023-04-30T04:16:45;97906.47;;;8.93;100.00
46722;BME280;32455;43.430;23.136;2023-04-30T04:19:31;97904.56;;;9.00;100.00
46722;BME280;32455;43.430;23.136;2023-04-30T04:22:16;97911.72;;;9.07;100.00
46722;BME280;32455;43.430;23.136;2023-04-30T04:25:01;97913.31;;;9.14;100.00
46722;BME280;32455;43.430;23.136;2023-04-30T04:27:46;97904.59;;;9.19;100.00
46722;BME280;32455;43.430;23.136;2023-04-30T04:30:32;97913.56;;;9.31;100.00
46722;BME280;32455;43.430;23.136;2023-04-30T04:33:16;97915.16;;;9.39;100.00
46722;BME280;32455;43.430;23.136;2023-04-30T04:36:02;97910.81;;;9.38;100.00
46722;BME280;32455;43.430;23.136;2023-04-30T04:38:47;97909.31;;;9.42;100.00
46722;BME280;32455;43.430;23.136;2023-04-30T04:41:33;97931.41;;;9.62;100.00
46722;BME280;32455;43.430;23.136;2023-04-30T04:44:21;97918.22;;;9.61;100.00
46722;BME280;32455;43.430;23.136;2023-04-30T04:47:06;97922.25;;;9.70;100.00
46722;BME280;32455;43.430;23.136;2023-04-30T04:49:52;97921.53;;;9.81;100.00
46722;BME280;32455;43.430;23.136;2023-04-30T04:52:37;97935.16;;;9.98;100.00
46722;BME280;32455;43.430;23.136;2023-04-30T04:55:23;97922.25;;;10.07;100.00
46722;BME280;32455;43.430;23.136;2023-04-30T04:58:09;97922.53;;;10.17;100.00
46722;BME280;32455;43.430;23.136;2023-04-30T05:00:54;97928.66;;;10.24;100.00
46722;BME280;32455;43.430;23.136;2023-04-30T05:03:41;97935.25;;;10.40;100.00
46722;BME280;32455;43.430;23.136;2023-04-30T05:06:26;97929.81;;;10.46;100.00
46722;BME280;32455;43.430;23.136;2023-04-30T05:09:12;97923.88;;;10.56;100.00
46722;BME280;32455;43.430;23.136;2023-04-30T05:11:58;97940.78;;;10.75;100.00
46722;BME280;32455;43.430;23.136;2023-04-30T05:14:43;97933.22;;;10.84;100.00
46722;BME280;32455;43.430;23.136;2023-04-30T05:17:29;97937.41;;;10.91;100.00
46722;BME280;32455;43.430;23.136;2023-04-30T05:20:14;97935.94;;;11.07;100.00
46722;BME280;32455;43.430;23.136;2023-04-30T05:23:00;97941.00;;;11.27;100.00
46722;BME280;32455;43.430;23.136;2023-04-30T05:25:50;97944.03;;;11.42;100.00
46722;BME280;32455;43.430;23.136;2023-04-30T05:28:36;97937.03;;;11.53;100.00
46722;BME280;32455;43.430;23.136;2023-04-30T05:31:22;97930.13;;;11.57;100.00
46722;BME280;32455;43.430;23.136;2023-04-30T05:34:07;97932.78;;;11.69;100.00
46722;BME280;32455;43.430;23.136;2023-04-30T05:36:53;97936.22;;;11.88;100.00
46722;BME280;32455;43.430;23.136;2023-04-30T05:39:38;97949.41;;;12.01;100.00
46722;BME280;32455;43.430;23.136;2023-04-30T05:42:24;97941.66;;;11.81;100.00
46722;BME280;32455;43.430;23.136;2023-04-30T05:45:09;97954.91;;;11.94;100.00
46722;BME280;32455;43.430;23.136;2023-04-30T05:47:56;97957.59;;;12.06;100.00
46722;BME280;32455;43.430;23.136;2023-04-30T05:50:41;97948.13;;;12.03;100.00
46722;BME280;32455;43.430;23.136;2023-04-30T05:53:27;97956.25;;;12.20;100.00
46722;BME280;32455;43.430;23.136;2023-04-30T05:56:12;97949.41;;;12.41;100.00
46722;BME280;32455;43.430;23.136;2023-04-30T05:58:58;97943.63;;;12.49;100.00
46722;BME280;32455;43.430;23.136;2023-04-30T06:01:43;97950.28;;;12.59;100.00
46722;BME280;32455;43.430;23.136;2023-04-30T06:04:28;97962.59;;;12.83;99.47
46722;BME280;32455;43.430;23.136;2023-04-30T06:07:14;97969.16;;;13.04;99.67
46722;BME280;32455;43.430;23.136;2023-04-30T06:09:59;97972.28;;;13.13;98.30
46722;BME280;32455;43.430;23.136;2023-04-30T06:12:44;97957.78;;;13.31;96.46
46722;BME280;32455;43.430;23.136;2023-04-30T06:15:29;97973.88;;;13.59;95.87
46722;BME280;32455;43.430;23.136;2023-04-30T06:18:15;97982.78;;;13.76;92.33
46722;BME280;32455;43.430;23.136;2023-04-30T06:21:00;97966.84;;;13.75;92.09
46722;BME280;32455;43.430;23.136;2023-04-30T06:23:46;97971.69;;;13.95;89.40
46722;BME280;32455;43.430;23.136;2023-04-30T06:26:31;97964.41;;;14.17;89.17
46722;BME280;32455;43.430;23.136;2023-04-30T06:29:17;97970.28;;;14.31;87.12
46722;BME280;32455;43.430;23.136;2023-04-30T06:32:02;97978.78;;;14.40;85.83
46722;BME280;32455;43.430;23.136;2023-04-30T06:34:47;97972.41;;;14.29;83.73
46722;BME280;32455;43.430;23.136;2023-04-30T06:37:33;97975.72;;;14.53;83.65
46722;BME280;32455;43.430;23.136;2023-04-30T06:40:21;97981.44;;;14.57;73.69
46722;BME280;32455;43.430;23.136;2023-04-30T06:43:07;97983.97;;;14.90;74.64
46722;BME280;32455;43.430;23.136;2023-04-30T06:45:53;97974.31;;;14.99;73.99
46722;BME280;32455;43.430;23.136;2023-04-30T06:48:38;97975.78;;;15.12;71.21
46722;BME280;32455;43.430;23.136;2023-04-30T06:51:23;97983.94;;;15.49;70.45
46722;BME280;32455;43.430;23.136;2023-04-30T06:54:11;97973.16;;;15.55;69.46
46722;BME280;32455;43.430;23.136;2023-04-30T06:56:57;97980.06;;;15.67;67.22
46722;BME280;32455;43.430;23.136;2023-04-30T06:59:42;97983.75;;;15.93;67.09
46722;BME280;32455;43.430;23.136;2023-04-30T07:02:28;97972.69;;;16.05;66.03
46722;BME280;32455;43.430;23.136;2023-04-30T07:05:13;97980.13;;;16.30;67.96
46722;BME280;32455;43.430;23.136;2023-04-30T07:08:02;97983.53;;;16.05;66.86
46722;BME280;32455;43.430;23.136;2023-04-30T07:10:48;97976.31;;;16.26;66.72
46722;BME280;32455;43.430;23.136;2023-04-30T07:13:33;97969.50;;;16.81;63.72
46722;BME280;32455;43.430;23.136;2023-04-30T07:16:18;97958.13;;;16.79;63.41
46722;BME280;32455;43.430;23.136;2023-04-30T07:19:03;97991.78;;;17.03;61.15
46722;BME280;32455;43.430;23.136;2023-04-30T07:21:49;97965.97;;;16.81;61.01
46722;BME280;32455;43.430;23.136;2023-04-30T07:24:34;97982.03;;;17.08;59.16
46722;BME280;32455;43.430;23.136;2023-04-30T07:27:20;97979.03;;;17.04;60.22
46722;BME280;32455;43.430;23.136;2023-04-30T07:30:06;97983.44;;;17.36;61.37
46722;BME280;32455;43.430;23.136;2023-04-30T07:32:54;97972.28;;;17.37;60.54
46722;BME280;32455;43.430;23.136;2023-04-30T07:35:40;97995.94;;;17.52;59.43
46722;BME280;32455;43.430;23.136;2023-04-30T07:38:25;97988.31;;;17.59;58.04
46722;BME280;32455;43.430;23.136;2023-04-30T07:41:11;97991.56;;;17.66;58.07
46722;BME280;32455;43.430;23.136;2023-04-30T07:43:56;97975.56;;;17.75;57.67
46722;BME280;32455;43.430;23.136;2023-04-30T07:46:41;97981.53;;;17.62;57.54
46722;BME280;32455;43.430;23.136;2023-04-30T07:49:27;97986.41;;;17.80;58.09
46722;BME280;32455;43.430;23.136;2023-04-30T07:52:13;97974.16;;;17.67;58.08
46722;BME280;32455;43.430;23.136;2023-04-30T07:54:58;97982.84;;;18.05;57.73
46722;BME280;32455;43.430;23.136;2023-04-30T07:57:42;97982.31;;;18.03;56.65
46722;BME280;32455;43.430;23.136;2023-04-30T08:00:27;97982.88;;;17.85;59.09
46722;BME280;32455;43.430;23.136;2023-04-30T08:03:13;97989.63;;;18.13;55.08
46722;BME280;32455;43.430;23.136;2023-04-30T08:05:59;97981.50;;;17.72;56.68
46722;BME280;32455;43.430;23.136;2023-04-30T08:08:44;97977.00;;;18.47;58.72
46722;BME280;32455;43.430;23.136;2023-04-30T08:11:30;97976.66;;;18.64;58.57
46722;BME280;32455;43.430;23.136;2023-04-30T08:14:15;97964.25;;;18.97;56.56
46722;BME280;32455;43.430;23.136;2023-04-30T08:17:01;97979.91;;;18.76;56.99
46722;BME280;32455;43.430;23.136;2023-04-30T08:19:47;97980.53;;;19.08;54.76
46722;BME280;32455;43.430;23.136;2023-04-30T08:22:33;97979.91;;;18.76;53.37
46722;BME280;32455;43.430;23.136;2023-04-30T08:25:18;97970.25;;;19.34;53.98
46722;BME280;32455;43.430;23.136;2023-04-30T08:28:05;97970.03;;;19.25;53.73
46722;BME280;32455;43.430;23.136;2023-04-30T08:30:51;97976.84;;;19.22;53.89
46722;BME280;32455;43.430;23.136;2023-04-30T08:33:37;97971.50;;;19.12;53.47
46722;BME280;32455;43.430;23.136;2023-04-30T08:36:22;97964.09;;;19.23;55.35
46722;BME280;32455;43.430;23.136;2023-04-30T08:39:07;97968.50;;;19.48;54.60
46722;BME280;32455;43.430;23.136;2023-04-30T08:41:55;97968.09;;;19.31;54.21
46722;BME280;32455;43.430;23.136;2023-04-30T08:44:41;97957.97;;;19.36;53.75
46722;BME280;32455;43.430;23.136;2023-04-30T08:47:30;97963.63;;;19.45;52.27
46722;BME280;32455;43.430;23.136;2023-04-30T08:50:15;97973.56;;;19.65;52.10
46722;BME280;32455;43.430;23.136;2023-04-30T08:53:01;97958.25;;;19.69;52.48
46722;BME280;32455;43.430;23.136;2023-04-30T08:55:47;97953.63;;;19.69;50.71
46722;BME280;32455;43.430;23.136;2023-04-30T08:58:32;97950.00;;;19.06;52.02
46722;BME280;32455;43.430;23.136;2023-04-30T09:01:19;97943.44;;;19.46;52.33
46722;BME280;32455;43.430;23.136;2023-04-30T09:04:05;97954.06;;;19.47;52.31
46722;BME280;32455;43.430;23.136;2023-04-30T09:06:52;97969.28;;;19.83;51.54
46722;BME280;32455;43.430;23.136;2023-04-30T09:09:42;97942.38;;;19.76;53.80
46722;BME280;32455;43.430;23.136;2023-04-30T09:12:28;97940.22;;;19.73;53.39
46722;BME280;32455;43.430;23.136;2023-04-30T09:15:13;97941.38;;;20.20;53.17
46722;BME280;32455;43.430;23.136;2023-04-30T09:21:00;97955.00;;;19.96;49.36
46722;BME280;32455;43.430;23.136;2023-04-30T09:24:02;97946.66;;;19.87;49.37
46722;BME280;32455;43.430;23.136;2023-04-30T09:26:48;97959.28;;;20.02;49.13
46722;BME280;32455;43.430;23.136;2023-04-30T09:29:37;97946.13;;;20.33;50.37
46722;BME280;32455;43.430;23.136;2023-04-30T09:32:22;97962.50;;;20.57;48.23
46722;BME280;32455;43.430;23.136;2023-04-30T09:35:28;97941.97;;;20.60;48.43
46722;BME280;32455;43.430;23.136;2023-04-30T09:38:31;97935.38;;;19.94;50.00
46722;BME280;32455;43.430;23.136;2023-04-30T09:41:27;97947.06;;;20.23;49.56
46722;BME280;32455;43.430;23.136;2023-04-30T09:44:30;97947.28;;;20.51;47.99
46722;BME280;32455;43.430;23.136;2023-04-30T09:47:17;97941.84;;;20.89;48.51
46722;BME280;32455;43.430;23.136;2023-04-30T09:50:04;97939.84;;;20.33;48.32
46722;BME280;32455;43.430;23.136;2023-04-30T09:52:53;97925.13;;;20.10;47.92
46722;BME280;32455;43.430;23.136;2023-04-30T09:55:51;97938.63;;;20.87;49.09
46722;BME280;32455;43.430;23.136;2023-04-30T09:58:37;97947.69;;;19.91;50.07
46722;BME280;32455;43.430;23.136;2023-04-30T10:01:26;97952.72;;;19.79;48.18
46722;BME280;32455;43.430;23.136;2023-04-30T10:04:12;97942.41;;;19.42;51.22
46722;BME280;32455;43.430;23.136;2023-04-30T10:07:03;97929.31;;;20.26;49.86
46722;BME280;32455;43.430;23.136;2023-04-30T10:09:56;97926.56;;;20.02;51.00
46722;BME280;32455;43.430;23.136;2023-04-30T10:12:52;97927.13;;;19.75;46.72
46722;BME280;32455;43.430;23.136;2023-04-30T10:15:44;97926.16;;;19.32;48.02
46722;BME280;32455;43.430;23.136;2023-04-30T10:18:38;97932.56;;;19.46;49.18
46722;BME280;32455;43.430;23.136;2023-04-30T10:21:25;97933.06;;;19.19;48.90
46722;BME280;32455;43.430;23.136;2023-04-30T10:24:14;97930.66;;;19.75;49.69
46722;BME280;32455;43.430;23.136;2023-04-30T10:27:02;97934.28;;;19.95;44.27
46722;BME280;32455;43.430;23.136;2023-04-30T10:29:49;97908.13;;;20.37;48.06
46722;BME280;32455;43.430;23.136;2023-04-30T10:32:43;97916.97;;;20.71;45.55
46722;BME280;32455;43.430;23.136;2023-04-30T10:38:39;97909.97;;;20.84;46.96
46722;BME280;32455;43.430;23.136;2023-04-30T10:41:25;97911.94;;;19.93;48.30
46722;BME280;32455;43.430;23.136;2023-04-30T10:44:13;97907.97;;;20.28;47.49
46722;BME280;32455;43.430;23.136;2023-04-30T10:47:00;97903.25;;;20.76;45.42
46722;BME280;32455;43.430;23.136;2023-04-30T10:49:48;97908.28;;;20.69;44.35
46722;BME280;32455;43.430;23.136;2023-04-30T10:52:34;97906.09;;;21.42;45.54
46722;BME280;32455;43.430;23.136;2023-04-30T10:55:22;97914.94;;;20.82;43.48
46722;BME280;32455;43.430;23.136;2023-04-30T10:58:24;97895.06;;;20.58;45.99
46722;BME280;32455;43.430;23.136;2023-04-30T11:01:13;97909.56;;;20.77;46.52
46722;BME280;32455;43.430;23.136;2023-04-30T11:04:07;97904.50;;;21.55;45.96
46722;BME280;32455;43.430;23.136;2023-04-30T11:06:54;97896.53;;;21.72;43.95
46722;BME280;32455;43.430;23.136;2023-04-30T11:09:41;97898.16;;;21.08;42.37
46722;BME280;32455;43.430;23.136;2023-04-30T11:12:27;97901.88;;;20.36;43.41
46722;BME280;32455;43.430;23.136;2023-04-30T11:15:15;97902.66;;;20.18;43.46
46722;BME280;32455;43.430;23.136;2023-04-30T11:18:02;97900.34;;;20.06;45.74
46722;BME280;32455;43.430;23.136;2023-04-30T11:20:51;97897.50;;;19.92;44.84
46722;BME280;32455;43.430;23.136;2023-04-30T11:23:36;97901.56;;;19.71;45.48
46722;BME280;32455;43.430;23.136;2023-04-30T11:26:25;97910.25;;;19.73;44.57
46722;BME280;32455;43.430;23.136;2023-04-30T11:29:11;97898.34;;;19.64;44.15
46722;BME280;32455;43.430;23.136;2023-04-30T11:31:59;97909.72;;;19.71;44.60
46722;BME280;32455;43.430;23.136;2023-04-30T11:34:45;97900.19;;;19.68;45.52
46722;BME280;32455;43.430;23.136;2023-04-30T11:37:34;97897.72;;;19.72;46.60
46722;BME280;32455;43.430;23.136;2023-04-30T11:40:20;97896.03;;;19.76;45.80
46722;BME280;32455;43.430;23.136;2023-04-30T11:43:06;97898.94;;;19.85;45.29
46722;BME280;32455;43.430;23.136;2023-04-30T11:46:09;97897.56;;;19.58;45.88
46722;BME280;32455;43.430;23.136;2023-04-30T11:48:56;97900.28;;;19.87;46.70
46722;BME280;32455;43.430;23.136;2023-04-30T11:51:41;97892.56;;;19.70;43.90
46722;BME280;32455;43.430;23.136;2023-04-30T11:54:35;97883.38;;;19.85;43.84
46722;BME280;32455;43.430;23.136;2023-04-30T11:57:20;97881.88;;;20.22;45.93
46722;BME280;32455;43.430;23.136;2023-04-30T12:00:14;97886.50;;;20.83;42.81
46722;BME280;32455;43.430;23.136;2023-04-30T12:03:00;97887.41;;;21.30;43.51
46722;BME280;32455;43.430;23.136;2023-04-30T12:05:48;97879.19;;;21.30;41.21
46722;BME280;32455;43.430;23.136;2023-04-30T12:08:35;97875.91;;;21.33;40.72
46722;BME280;32455;43.430;23.136;2023-04-30T12:11:34;97881.16;;;21.76;39.01
46722;BME280;32455;43.430;23.136;2023-04-30T12:14:23;97871.59;;;21.46;39.31
46722;BME280;32455;43.430;23.136;2023-04-30T12:17:08;97871.50;;;20.81;40.43
46722;BME280;32455;43.430;23.136;2023-04-30T12:19:54;97868.63;;;20.34;42.43
46722;BME280;32455;43.430;23.136;2023-04-30T12:22:41;97873.41;;;20.42;43.45
46722;BME280;32455;43.430;23.136;2023-04-30T12:25:28;97875.97;;;20.34;42.49
46722;BME280;32455;43.430;23.136;2023-04-30T12:28:14;97868.25;;;20.97;40.32
46722;BME280;32455;43.430;23.136;2023-04-30T12:30:59;97865.41;;;21.54;40.92
46722;BME280;32455;43.430;23.136;2023-04-30T12:33:53;97863.19;;;21.70;41.90
46722;BME280;32455;43.430;23.136;2023-04-30T12:36:40;97862.66;;;22.50;42.76
46722;BME280;32455;43.430;23.136;2023-04-30T12:39:32;97868.47;;;21.94;37.71
46722;BME280;32455;43.430;23.136;2023-04-30T12:42:18;97856.91;;;21.83;39.56
46722;BME280;32455;43.430;23.136;2023-04-30T12:45:04;97852.59;;;22.23;40.52
46722;BME280;32455;43.430;23.136;2023-04-30T12:47:52;97864.06;;;22.48;38.72
46722;BME280;32455;43.430;23.136;2023-04-30T12:50:38;97863.94;;;22.17;40.90
46722;BME280;32455;43.430;23.136;2023-04-30T12:53:23;97866.53;;;22.08;40.03
46722;BME280;32455;43.430;23.136;2023-04-30T12:56:16;97855.06;;;22.47;38.92
46722;BME280;32455;43.430;23.136;2023-04-30T12:59:01;97864.94;;;22.07;39.01
46722;BME280;32455;43.430;23.136;2023-04-30T13:01:45;97858.63;;;21.52;40.40
46722;BME280;32455;43.430;23.136;2023-04-30T13:04:30;97851.00;;;21.35;41.04
46722;BME280;32455;43.430;23.136;2023-04-30T13:07:15;97853.72;;;21.35;42.21
46722;BME280;32455;43.430;23.136;2023-04-30T13:10:00;97848.63;;;20.76;40.63
46722;BME280;32455;43.430;23.136;2023-04-30T13:12:46;97851.59;;;21.32;40.70
46722;BME280;32455;43.430;23.136;2023-04-30T13:15:31;97849.69;;;20.62;41.18
46722;BME280;32455;43.430;23.136;2023-04-30T13:18:17;97832.50;;;19.99;41.06
46722;BME280;32455;43.430;23.136;2023-04-30T13:21:02;97855.66;;;20.83;40.26
46722;BME280;32455;43.430;23.136;2023-04-30T13:23:48;97840.56;;;21.04;39.07
46722;BME280;32455;43.430;23.136;2023-04-30T13:26:34;97845.16;;;21.41;37.78
46722;BME280;32455;43.430;23.136;2023-04-30T13:29:19;97840.19;;;21.57;37.85
46722;BME280;32455;43.430;23.136;2023-04-30T13:32:05;97833.50;;;22.05;35.87
46722;BME280;32455;43.430;23.136;2023-04-30T13:34:50;97836.44;;;21.67;38.25
46722;BME280;32455;43.430;23.136;2023-04-30T13:37:39;97826.63;;;22.07;37.28
46722;BME280;32455;43.430;23.136;2023-04-30T13:40:25;97821.88;;;22.13;36.98
46722;BME280;32455;43.430;23.136;2023-04-30T13:43:10;97831.66;;;22.41;35.98
46722;BME280;32455;43.430;23.136;2023-04-30T13:45:56;97829.56;;;21.83;36.11
46722;BME280;32455;43.430;23.136;2023-04-30T13:48:45;97817.69;;;22.29;38.41
46722;BME280;32455;43.430;23.136;2023-04-30T13:51:35;97825.59;;;22.31;37.38
46722;BME280;32455;43.430;23.136;2023-04-30T13:54:21;97817.44;;;22.39;37.82
46722;BME280;32455;43.430;23.136;2023-04-30T13:57:06;97830.75;;;22.05;37.92
46722;BME280;32455;43.430;23.136;2023-04-30T13:59:53;97820.63;;;22.05;38.89
46722;BME280;32455;43.430;23.136;2023-04-30T14:02:38;97820.34;;;22.57;38.61
46722;BME280;32455;43.430;23.136;2023-04-30T14:05:24;97818.09;;;21.54;37.85
46722;BME280;32455;43.430;23.136;2023-04-30T14:08:10;97812.34;;;22.24;39.61
46722;BME280;32455;43.430;23.136;2023-04-30T14:10:57;97820.41;;;22.65;38.13
46722;BME280;32455;43.430;23.136;2023-04-30T14:13:42;97816.91;;;21.87;38.69
46722;BME280;32455;43.430;23.136;2023-04-30T14:16:28;97800.50;;;21.60;38.63
46722;BME280;32455;43.430;23.136;2023-04-30T14:19:14;97803.28;;;21.27;38.83
46722;BME280;32455;43.430;23.136;2023-04-30T14:21:59;97800.69;;;21.49;38.71
46722;BME280;32455;43.430;23.136;2023-04-30T14:24:44;97806.81;;;21.27;39.90
46722;BME280;32455;43.430;23.136;2023-04-30T14:27:30;97801.06;;;20.96;39.12
46722;BME280;32455;43.430;23.136;2023-04-30T14:30:15;97809.94;;;21.21;37.81
46722;BME280;32455;43.430;23.136;2023-04-30T14:33:00;97811.56;;;21.55;36.39
46722;BME280;32455;43.430;23.136;2023-04-30T14:35:46;97815.28;;;21.86;37.87
46722;BME280;32455;43.430;23.136;2023-04-30T14:38:32;97814.16;;;21.87;35.21
46722;BME280;32455;43.430;23.136;2023-04-30T14:41:17;97814.47;;;21.44;35.99
46722;BME280;32455;43.430;23.136;2023-04-30T14:44:02;97805.97;;;21.13;37.83
46722;BME280;32455;43.430;23.136;2023-04-30T14:46:47;97801.63;;;20.42;39.54
46722;BME280;32455;43.430;23.136;2023-04-30T14:49:33;97800.47;;;21.32;37.78
46722;BME280;32455;43.430;23.136;2023-04-30T14:52:18;97805.47;;;21.11;38.36
46722;BME280;32455;43.430;23.136;2023-04-30T14:55:04;97813.84;;;21.34;38.71